Pagina principală
METAR-TAF:

METAR-TAF

Aeroporturi :

Uruguaiana, Rio Grande do Sul, Brazilia

Latitudine: 29-47S, longitudine: 057-02W, elevație: 74 m

METAR: lipsă

Ora: 16:58 (19:58 UTC)

Prognoză

Raportul a fost făcut în urmă cu 3 ore și 58 de minute, la 16:00 UTC
Prognoză valabilă de la 21 ora 18 UTC la 22 ora 06 UTC
Vânt 14 kt de la Nord/Nord-est
Vizibilitate de 10 km sau mai mult
Nori împrăștiați la o înălțime de 1800 picior
Probabilitate 40% :
Temporar
de la 21 ora 18 UTC la 21 ora 22 UTC
Nori fragmentați la o înălțime de 1000 picior
Nori puțini la o înălțime de 4500 picior, Cumulonimbus.
oraj

TAF: SBUG 211600Z 2118/2206 03014KT 9999 SCT018 TX23/2118Z TN19/2205Z PROB40 TEMPO 2118/2122 TS BKN010 FEW045CB RMK PFR

Observații și prognoze meteo pentru peste 4.000 de aeroporturi (rapoarte METAR și TAF).

Stațiile disponibile sunt reprezentate pe hartă prin puncte galbene și roșii.

Țineți indicatorul mouse-ului pe punctul dorit pentru a vedea denumirea stației.

Apoi, faceți clic pentru a vedea observațiile și prognozele meteorologice.

Pentru a schimba harta: Pentru mărire, faceți clic pe butoanele verzi cu cruce neagră; pentru micșorare, pe butonul verde cu o liniuță; pentru hărți învecinate, pe săgețile verzi.


METAR-TAF: